Terminal Aerodrome Forecast
Issued by NWS

Current Version | Previous Version | Text Only | Print | Product List | Glossary On
Versions: 1 2 3 4 5 6 7 8 9 10 11 12 13 14 15 16 17 18 19 20 21 22 23 24 25 26 27 28 29 30 31 32 33 34 35 36 37 38 39 40 41 42 43 44 45 46
123
FTPA31 PHFO 112328
TAFMDY
TAF
PMDY 112328Z 1200/1224 23015G25KT P6SM VCSH SCT015 OVC035
      TEMPO 1200/1204 4SM RA BR BKN015 OVC025
     FM120500 27015KT P6SM VCSH SCT018 BKN035 OVC060
     FM122000 29015KT P6SM VCSH SCT015 BKN030
      AMD NOT SKED=

USA.gov is the U.S. government's official web portal to all federal, state and local government web resources and services.